sensor_id;sensor_type;location;lat;lon;timestamp;P1;durP1;ratioP1;P2;durP2;ratioP2
4939;SDS011;2485;49.326;7.214;2022-07-22T00:01:57;15.33;;;11.90;;
4939;SDS011;2485;49.326;7.214;2022-07-22T00:04:23;15.43;;;10.53;;
4939;SDS011;2485;49.326;7.214;2022-07-22T00:06:50;17.87;;;12.13;;
4939;SDS011;2485;49.326;7.214;2022-07-22T00:09:16;15.20;;;11.80;;
4939;SDS011;2485;49.326;7.214;2022-07-22T00:11:43;11.90;;;10.70;;
4939;SDS011;2485;49.326;7.214;2022-07-22T00:14:09;14.10;;;11.90;;
4939;SDS011;2485;49.326;7.214;2022-07-22T00:16:39;19.30;;;12.73;;
4939;SDS011;2485;49.326;7.214;2022-07-22T00:19:06;13.97;;;11.53;;
4939;SDS011;2485;49.326;7.214;2022-07-22T00:21:32;19.77;;;11.63;;
4939;SDS011;2485;49.326;7.214;2022-07-22T00:23:58;15.73;;;11.57;;
4939;SDS011;2485;49.326;7.214;2022-07-22T00:26:25;15.00;;;12.00;;
4939;SDS011;2485;49.326;7.214;2022-07-22T00:28:51;16.87;;;13.00;;
4939;SDS011;2485;49.326;7.214;2022-07-22T00:31:17;25.00;;;13.30;;
4939;SDS011;2485;49.326;7.214;2022-07-22T00:33:45;17.63;;;14.53;;
4939;SDS011;2485;49.326;7.214;2022-07-22T00:36:11;22.67;;;13.83;;
4939;SDS011;2485;49.326;7.214;2022-07-22T00:38:38;14.80;;;12.30;;
4939;SDS011;2485;49.326;7.214;2022-07-22T00:41:05;18.63;;;13.77;;
4939;SDS011;2485;49.326;7.214;2022-07-22T00:46:13;22.57;;;13.23;;
4939;SDS011;2485;49.326;7.214;2022-07-22T00:48:39;17.70;;;13.90;;
4939;SDS011;2485;49.326;7.214;2022-07-22T00:51:07;13.97;;;12.47;;
4939;SDS011;2485;49.326;7.214;2022-07-22T00:53:34;16.10;;;12.87;;
4939;SDS011;2485;49.326;7.214;2022-07-22T00:56:00;18.53;;;13.60;;
4939;SDS011;2485;49.326;7.214;2022-07-22T00:58:28;19.33;;;14.40;;
4939;SDS011;2485;49.326;7.214;2022-07-22T01:00:54;18.07;;;13.60;;
4939;SDS011;2485;49.326;7.214;2022-07-22T01:03:21;16.17;;;13.17;;
4939;SDS011;2485;49.326;7.214;2022-07-22T01:05:47;19.63;;;14.50;;
4939;SDS011;2485;49.326;7.214;2022-07-22T01:08:15;19.33;;;14.23;;
4939;SDS011;2485;49.326;7.214;2022-07-22T01:10:41;17.27;;;13.53;;
4939;SDS011;2485;49.326;7.214;2022-07-22T01:13:08;23.10;;;13.47;;
4939;SDS011;2485;49.326;7.214;2022-07-22T01:15:34;18.60;;;14.20;;
4939;SDS011;2485;49.326;7.214;2022-07-22T01:18:00;19.13;;;13.63;;
4939;SDS011;2485;49.326;7.214;2022-07-22T01:20:28;19.67;;;13.10;;
4939;SDS011;2485;49.326;7.214;2022-07-22T01:22:55;18.40;;;12.90;;
4939;SDS011;2485;49.326;7.214;2022-07-22T01:25:21;17.73;;;13.20;;
4939;SDS011;2485;49.326;7.214;2022-07-22T01:27:47;18.30;;;13.30;;
4939;SDS011;2485;49.326;7.214;2022-07-22T01:30:14;19.37;;;14.37;;
4939;SDS011;2485;49.326;7.214;2022-07-22T01:32:40;16.73;;;14.17;;
4939;SDS011;2485;49.326;7.214;2022-07-22T01:35:07;20.70;;;14.77;;
4939;SDS011;2485;49.326;7.214;2022-07-22T01:37:35;19.43;;;14.30;;
4939;SDS011;2485;49.326;7.214;2022-07-22T01:40:01;17.27;;;14.47;;
4939;SDS011;2485;49.326;7.214;2022-07-22T01:42:28;16.90;;;13.93;;
4939;SDS011;2485;49.326;7.214;2022-07-22T01:44:54;19.57;;;14.50;;
4939;SDS011;2485;49.326;7.214;2022-07-22T01:47:21;17.93;;;13.57;;
4939;SDS011;2485;49.326;7.214;2022-07-22T01:49:47;17.37;;;14.47;;
4939;SDS011;2485;49.326;7.214;2022-07-22T01:52:14;18.20;;;14.10;;
4939;SDS011;2485;49.326;7.214;2022-07-22T01:54:42;19.30;;;14.80;;
4939;SDS011;2485;49.326;7.214;2022-07-22T01:57:08;19.17;;;14.50;;
4939;SDS011;2485;49.326;7.214;2022-07-22T01:59:35;20.17;;;14.50;;
4939;SDS011;2485;49.326;7.214;2022-07-22T02:02:01;17.37;;;14.90;;
4939;SDS011;2485;49.326;7.214;2022-07-22T02:04:28;21.80;;;15.00;;
4939;SDS011;2485;49.326;7.214;2022-07-22T02:06:54;17.73;;;14.20;;
4939;SDS011;2485;49.326;7.214;2022-07-22T02:09:20;18.00;;;14.90;;
4939;SDS011;2485;49.326;7.214;2022-07-22T02:11:48;17.50;;;13.70;;
4939;SDS011;2485;49.326;7.214;2022-07-22T02:14:14;20.00;;;14.53;;
4939;SDS011;2485;49.326;7.214;2022-07-22T02:16:41;18.67;;;14.50;;
4939;SDS011;2485;49.326;7.214;2022-07-22T02:19:07;18.93;;;14.53;;
4939;SDS011;2485;49.326;7.214;2022-07-22T02:21:34;21.77;;;14.57;;
4939;SDS011;2485;49.326;7.214;2022-07-22T02:24:00;19.40;;;14.30;;
4939;SDS011;2485;49.326;7.214;2022-07-22T02:26:26;17.83;;;14.67;;
4939;SDS011;2485;49.326;7.214;2022-07-22T02:28:54;19.80;;;14.60;;
4939;SDS011;2485;49.326;7.214;2022-07-22T02:31:21;23.30;;;15.57;;
4939;SDS011;2485;49.326;7.214;2022-07-22T02:33:47;21.30;;;14.27;;
4939;SDS011;2485;49.326;7.214;2022-07-22T02:36:13;21.03;;;14.70;;
4939;SDS011;2485;49.326;7.214;2022-07-22T02:38:40;19.43;;;14.00;;
4939;SDS011;2485;49.326;7.214;2022-07-22T02:41:06;20.00;;;13.87;;
4939;SDS011;2485;49.326;7.214;2022-07-22T02:43:32;19.00;;;14.83;;
4939;SDS011;2485;49.326;7.214;2022-07-22T02:46:00;20.53;;;13.87;;
4939;SDS011;2485;49.326;7.214;2022-07-22T02:48:26;18.67;;;14.10;;
4939;SDS011;2485;49.326;7.214;2022-07-22T02:50:53;20.83;;;14.50;;
4939;SDS011;2485;49.326;7.214;2022-07-22T02:53:19;20.50;;;14.80;;
4939;SDS011;2485;49.326;7.214;2022-07-22T02:55:46;23.07;;;15.20;;
4939;SDS011;2485;49.326;7.214;2022-07-22T02:58:12;20.73;;;15.50;;
4939;SDS011;2485;49.326;7.214;2022-07-22T03:00:38;22.10;;;15.33;;
4939;SDS011;2485;49.326;7.214;2022-07-22T03:03:06;18.57;;;14.73;;
4939;SDS011;2485;49.326;7.214;2022-07-22T03:05:33;19.43;;;15.20;;
4939;SDS011;2485;49.326;7.214;2022-07-22T03:07:59;21.13;;;15.73;;
4939;SDS011;2485;49.326;7.214;2022-07-22T03:10:25;17.40;;;13.90;;
4939;SDS011;2485;49.326;7.214;2022-07-22T03:12:52;21.10;;;15.20;;
4939;SDS011;2485;49.326;7.214;2022-07-22T03:15:18;22.70;;;14.33;;
4939;SDS011;2485;49.326;7.214;2022-07-22T03:17:45;21.23;;;13.90;;
4939;SDS011;2485;49.326;7.214;2022-07-22T03:20:13;17.60;;;14.17;;
4939;SDS011;2485;49.326;7.214;2022-07-22T03:22:39;20.40;;;15.17;;
4939;SDS011;2485;49.326;7.214;2022-07-22T03:25:05;19.33;;;14.40;;
4939;SDS011;2485;49.326;7.214;2022-07-22T03:27:32;20.00;;;14.00;;
4939;SDS011;2485;49.326;7.214;2022-07-22T03:29:58;18.23;;;14.70;;
4939;SDS011;2485;49.326;7.214;2022-07-22T03:32:25;17.77;;;14.90;;
4939;SDS011;2485;49.326;7.214;2022-07-22T03:34:51;20.43;;;15.50;;
4939;SDS011;2485;49.326;7.214;2022-07-22T03:37:19;17.80;;;14.60;;
4939;SDS011;2485;49.326;7.214;2022-07-22T03:39:45;21.37;;;15.70;;
4939;SDS011;2485;49.326;7.214;2022-07-22T03:42:12;18.80;;;15.70;;
4939;SDS011;2485;49.326;7.214;2022-07-22T03:44:38;19.90;;;15.47;;
4939;SDS011;2485;49.326;7.214;2022-07-22T03:47:05;21.77;;;16.40;;
4939;SDS011;2485;49.326;7.214;2022-07-22T03:49:31;21.37;;;15.10;;
4939;SDS011;2485;49.326;7.214;2022-07-22T03:51:58;21.93;;;15.40;;
4939;SDS011;2485;49.326;7.214;2022-07-22T03:54:26;19.93;;;14.50;;
4939;SDS011;2485;49.326;7.214;2022-07-22T03:56:52;20.83;;;14.87;;
4939;SDS011;2485;49.326;7.214;2022-07-22T03:59:18;22.63;;;15.63;;
4939;SDS011;2485;49.326;7.214;2022-07-22T04:01:45;21.70;;;15.77;;
4939;SDS011;2485;49.326;7.214;2022-07-22T04:04:11;20.83;;;15.97;;
4939;SDS011;2485;49.326;7.214;2022-07-22T04:06:37;20.93;;;16.53;;
4939;SDS011;2485;49.326;7.214;2022-07-22T04:09:04;21.03;;;15.10;;
4939;SDS011;2485;49.326;7.214;2022-07-22T04:11:31;18.83;;;14.70;;
4939;SDS011;2485;49.326;7.214;2022-07-22T04:13:58;22.23;;;15.43;;
4939;SDS011;2485;49.326;7.214;2022-07-22T04:16:25;26.00;;;15.77;;
4939;SDS011;2485;49.326;7.214;2022-07-22T04:18:51;20.13;;;14.87;;
4939;SDS011;2485;49.326;7.214;2022-07-22T04:21:18;19.80;;;14.33;;
4939;SDS011;2485;49.326;7.214;2022-07-22T04:23:44;18.80;;;14.50;;
4939;SDS011;2485;49.326;7.214;2022-07-22T04:26:10;18.07;;;13.43;;
4939;SDS011;2485;49.326;7.214;2022-07-22T04:28:38;19.87;;;14.13;;
4939;SDS011;2485;49.326;7.214;2022-07-22T04:31:04;15.97;;;12.93;;
4939;SDS011;2485;49.326;7.214;2022-07-22T04:33:31;16.77;;;13.90;;
4939;SDS011;2485;49.326;7.214;2022-07-22T04:35:57;15.97;;;11.77;;
4939;SDS011;2485;49.326;7.214;2022-07-22T04:38:24;16.73;;;11.70;;
4939;SDS011;2485;49.326;7.214;2022-07-22T04:40:50;16.90;;;12.50;;
4939;SDS011;2485;49.326;7.214;2022-07-22T04:43:16;14.97;;;11.60;;
4939;SDS011;2485;49.326;7.214;2022-07-22T04:45:44;18.00;;;10.90;;
4939;SDS011;2485;49.326;7.214;2022-07-22T04:48:10;13.60;;;11.47;;
4939;SDS011;2485;49.326;7.214;2022-07-22T04:50:37;14.27;;;10.13;;
4939;SDS011;2485;49.326;7.214;2022-07-22T04:53:03;12.60;;;9.77;;
4939;SDS011;2485;49.326;7.214;2022-07-22T04:55:30;14.90;;;11.37;;
4939;SDS011;2485;49.326;7.214;2022-07-22T04:57:56;12.07;;;9.03;;
4939;SDS011;2485;49.326;7.214;2022-07-22T05:00:23;11.27;;;9.07;;
4939;SDS011;2485;49.326;7.214;2022-07-22T05:02:51;16.20;;;10.10;;
4939;SDS011;2485;49.326;7.214;2022-07-22T05:05:17;13.27;;;9.70;;
4939;SDS011;2485;49.326;7.214;2022-07-22T05:07:44;14.30;;;8.73;;
4939;SDS011;2485;49.326;7.214;2022-07-22T05:10:10;12.40;;;9.77;;
4939;SDS011;2485;49.326;7.214;2022-07-22T05:12:37;14.30;;;9.03;;
4939;SDS011;2485;49.326;7.214;2022-07-22T05:15:04;13.83;;;10.10;;
4939;SDS011;2485;49.326;7.214;2022-07-22T05:17:30;14.10;;;9.50;;
4939;SDS011;2485;49.326;7.214;2022-07-22T05:19:58;11.00;;;9.80;;
4939;SDS011;2485;49.326;7.214;2022-07-22T05:22:24;14.17;;;10.90;;
4939;SDS011;2485;49.326;7.214;2022-07-22T05:24:50;16.03;;;10.73;;
4939;SDS011;2485;49.326;7.214;2022-07-22T05:27:17;13.20;;;9.87;;
4939;SDS011;2485;49.326;7.214;2022-07-22T05:29:43;13.40;;;10.13;;
4939;SDS011;2485;49.326;7.214;2022-07-22T05:32:10;11.60;;;9.60;;
4939;SDS011;2485;49.326;7.214;2022-07-22T05:34:36;12.63;;;9.00;;
4939;SDS011;2485;49.326;7.214;2022-07-22T05:37:04;16.30;;;9.77;;
4939;SDS011;2485;49.326;7.214;2022-07-22T05:39:30;12.43;;;9.27;;
4939;SDS011;2485;49.326;7.214;2022-07-22T05:41:57;14.90;;;9.73;;
4939;SDS011;2485;49.326;7.214;2022-07-22T05:44:23;10.67;;;8.33;;
4939;SDS011;2485;49.326;7.214;2022-07-22T05:46:50;14.70;;;9.13;;
4939;SDS011;2485;49.326;7.214;2022-07-22T05:49:17;13.27;;;8.30;;
4939;SDS011;2485;49.326;7.214;2022-07-22T05:51:44;14.53;;;8.63;;
4939;SDS011;2485;49.326;7.214;2022-07-22T05:54:12;10.67;;;8.23;;
4939;SDS011;2485;49.326;7.214;2022-07-22T05:56:40;14.40;;;9.03;;
4939;SDS011;2485;49.326;7.214;2022-07-22T05:59:07;12.63;;;7.83;;
4939;SDS011;2485;49.326;7.214;2022-07-22T06:01:33;13.40;;;8.93;;
4939;SDS011;2485;49.326;7.214;2022-07-22T06:03:59;10.00;;;8.17;;
4939;SDS011;2485;49.326;7.214;2022-07-22T06:06:26;10.10;;;7.90;;
4939;SDS011;2485;49.326;7.214;2022-07-22T06:08:52;14.90;;;8.23;;
4939;SDS011;2485;49.326;7.214;2022-07-22T06:11:20;12.13;;;8.33;;
4939;SDS011;2485;49.326;7.214;2022-07-22T06:13:46;15.03;;;9.30;;
4939;SDS011;2485;49.326;7.214;2022-07-22T06:16:13;10.80;;;8.20;;
4939;SDS011;2485;49.326;7.214;2022-07-22T06:18:39;14.47;;;8.77;;
4939;SDS011;2485;49.326;7.214;2022-07-22T06:21:05;14.33;;;7.80;;
4939;SDS011;2485;49.326;7.214;2022-07-22T06:23:33;11.80;;;7.80;;
4939;SDS011;2485;49.326;7.214;2022-07-22T06:25:59;9.80;;;8.17;;
4939;SDS011;2485;49.326;7.214;2022-07-22T06:28:27;13.97;;;7.33;;
4939;SDS011;2485;49.326;7.214;2022-07-22T06:30:53;12.67;;;7.43;;
4939;SDS011;2485;49.326;7.214;2022-07-22T06:33:19;13.07;;;8.53;;
4939;SDS011;2485;49.326;7.214;2022-07-22T06:35:46;11.60;;;7.17;;
4939;SDS011;2485;49.326;7.214;2022-07-22T06:38:12;13.40;;;8.80;;
4939;SDS011;2485;49.326;7.214;2022-07-22T06:40:38;12.83;;;8.13;;
4939;SDS011;2485;49.326;7.214;2022-07-22T06:43:05;14.53;;;8.60;;
4939;SDS011;2485;49.326;7.214;2022-07-22T06:45:33;11.13;;;7.57;;
4939;SDS011;2485;49.326;7.214;2022-07-22T06:47:59;9.90;;;7.20;;
4939;SDS011;2485;49.326;7.214;2022-07-22T06:50:25;12.07;;;7.93;;
4939;SDS011;2485;49.326;7.214;2022-07-22T06:52:52;15.63;;;6.63;;
4939;SDS011;2485;49.326;7.214;2022-07-22T06:55:18;7.53;;;5.97;;
4939;SDS011;2485;49.326;7.214;2022-07-22T06:57:45;12.07;;;7.10;;
4939;SDS011;2485;49.326;7.214;2022-07-22T07:00:12;11.40;;;7.83;;
4939;SDS011;2485;49.326;7.214;2022-07-22T07:02:40;9.90;;;8.10;;
4939;SDS011;2485;49.326;7.214;2022-07-22T07:05:06;8.97;;;6.47;;
4939;SDS011;2485;49.326;7.214;2022-07-22T07:07:33;11.37;;;7.70;;
4939;SDS011;2485;49.326;7.214;2022-07-22T07:09:59;10.73;;;7.70;;
4939;SDS011;2485;49.326;7.214;2022-07-22T07:12:25;9.27;;;6.80;;
4939;SDS011;2485;49.326;7.214;2022-07-22T07:14:52;10.17;;;7.40;;
4939;SDS011;2485;49.326;7.214;2022-07-22T07:17:18;11.50;;;7.63;;
4939;SDS011;2485;49.326;7.214;2022-07-22T07:19:46;11.00;;;7.53;;
4939;SDS011;2485;49.326;7.214;2022-07-22T07:22:12;11.10;;;7.67;;
4939;SDS011;2485;49.326;7.214;2022-07-22T07:24:39;10.80;;;7.60;;
4939;SDS011;2485;49.326;7.214;2022-07-22T07:27:05;16.43;;;8.07;;
4939;SDS011;2485;49.326;7.214;2022-07-22T07:29:31;8.77;;;7.00;;
4939;SDS011;2485;49.326;7.214;2022-07-22T07:31:58;7.90;;;5.90;;
4939;SDS011;2485;49.326;7.214;2022-07-22T07:34:24;10.57;;;7.20;;
4939;SDS011;2485;49.326;7.214;2022-07-22T07:36:52;13.50;;;7.87;;
4939;SDS011;2485;49.326;7.214;2022-07-22T07:39:18;10.67;;;7.10;;
4939;SDS011;2485;49.326;7.214;2022-07-22T07:41:45;14.53;;;7.03;;
4939;SDS011;2485;49.326;7.214;2022-07-22T07:44:11;10.97;;;8.10;;
4939;SDS011;2485;49.326;7.214;2022-07-22T07:46:38;9.53;;;6.10;;
4939;SDS011;2485;49.326;7.214;2022-07-22T07:49:04;11.90;;;7.23;;
4939;SDS011;2485;49.326;7.214;2022-07-22T07:51:30;13.17;;;7.10;;
4939;SDS011;2485;49.326;7.214;2022-07-22T07:53:58;12.50;;;6.50;;
4939;SDS011;2485;49.326;7.214;2022-07-22T07:56:24;8.27;;;6.80;;
4939;SDS011;2485;49.326;7.214;2022-07-22T07:58:51;9.93;;;7.27;;
4939;SDS011;2485;49.326;7.214;2022-07-22T08:01:17;10.00;;;6.90;;
4939;SDS011;2485;49.326;7.214;2022-07-22T08:03:44;9.43;;;7.13;;
4939;SDS011;2485;49.326;7.214;2022-07-22T08:06:10;12.80;;;6.57;;
4939;SDS011;2485;49.326;7.214;2022-07-22T08:08:37;10.13;;;6.73;;
4939;SDS011;2485;49.326;7.214;2022-07-22T08:11:04;8.67;;;7.00;;
4939;SDS011;2485;49.326;7.214;2022-07-22T08:13:31;14.20;;;6.93;;
4939;SDS011;2485;49.326;7.214;2022-07-22T08:15:57;11.27;;;7.20;;
4939;SDS011;2485;49.326;7.214;2022-07-22T08:18:24;11.77;;;7.07;;
4939;SDS011;2485;49.326;7.214;2022-07-22T08:20:50;10.00;;;7.33;;
4939;SDS011;2485;49.326;7.214;2022-07-22T08:23:17;10.97;;;6.73;;
4939;SDS011;2485;49.326;7.214;2022-07-22T08:25:43;6.90;;;6.00;;
4939;SDS011;2485;49.326;7.214;2022-07-22T08:28:11;11.93;;;5.70;;
4939;SDS011;2485;49.326;7.214;2022-07-22T08:30:37;8.27;;;6.63;;
4939;SDS011;2485;49.326;7.214;2022-07-22T08:33:04;11.83;;;7.07;;
4939;SDS011;2485;49.326;7.214;2022-07-22T08:35:30;14.87;;;7.47;;
4939;SDS011;2485;49.326;7.214;2022-07-22T08:37:57;9.47;;;6.30;;
4939;SDS011;2485;49.326;7.214;2022-07-22T08:40:23;10.13;;;6.53;;
4939;SDS011;2485;49.326;7.214;2022-07-22T08:42:51;7.70;;;6.90;;
4939;SDS011;2485;49.326;7.214;2022-07-22T08:45:19;12.33;;;8.70;;
4939;SDS011;2485;49.326;7.214;2022-07-22T08:47:46;8.00;;;7.20;;
4939;SDS011;2485;49.326;7.214;2022-07-22T08:50:13;10.03;;;6.97;;
4939;SDS011;2485;49.326;7.214;2022-07-22T08:52:39;7.93;;;6.40;;
4939;SDS011;2485;49.326;7.214;2022-07-22T08:55:06;11.80;;;7.77;;
4939;SDS011;2485;49.326;7.214;2022-07-22T08:57:32;9.83;;;7.00;;
4939;SDS011;2485;49.326;7.214;2022-07-22T09:00:00;10.20;;;7.00;;
4939;SDS011;2485;49.326;7.214;2022-07-22T09:02:29;14.30;;;7.93;;
4939;SDS011;2485;49.326;7.214;2022-07-22T09:05:02;8.23;;;7.00;;
4939;SDS011;2485;49.326;7.214;2022-07-22T09:07:30;12.60;;;7.40;;
4939;SDS011;2485;49.326;7.214;2022-07-22T09:09:57;14.10;;;8.17;;
4939;SDS011;2485;49.326;7.214;2022-07-22T09:12:25;10.07;;;7.03;;
4939;SDS011;2485;49.326;7.214;2022-07-22T09:14:53;12.93;;;7.20;;
4939;SDS011;2485;49.326;7.214;2022-07-22T09:17:27;10.77;;;7.20;;
4939;SDS011;2485;49.326;7.214;2022-07-22T09:19:55;11.00;;;7.83;;
4939;SDS011;2485;49.326;7.214;2022-07-22T09:22:35;7.13;;;6.13;;
4939;SDS011;2485;49.326;7.214;2022-07-22T09:25:18;9.60;;;7.20;;
4939;SDS011;2485;49.326;7.214;2022-07-22T09:27:45;11.23;;;7.30;;
4939;SDS011;2485;49.326;7.214;2022-07-22T09:30:12;9.10;;;7.30;;
4939;SDS011;2485;49.326;7.214;2022-07-22T09:32:39;10.97;;;7.17;;
4939;SDS011;2485;49.326;7.214;2022-07-22T09:35:08;10.93;;;7.60;;
4939;SDS011;2485;49.326;7.214;2022-07-22T09:37:35;8.60;;;6.80;;
4939;SDS011;2485;49.326;7.214;2022-07-22T09:40:14;9.30;;;7.40;;
4939;SDS011;2485;49.326;7.214;2022-07-22T09:42:43;8.50;;;6.30;;
4939;SDS011;2485;49.326;7.214;2022-07-22T09:45:10;9.00;;;7.43;;
4939;SDS011;2485;49.326;7.214;2022-07-22T09:47:36;9.00;;;7.00;;
4939;SDS011;2485;49.326;7.214;2022-07-22T09:50:12;10.50;;;7.23;;
4939;SDS011;2485;49.326;7.214;2022-07-22T09:52:39;9.33;;;7.27;;
4939;SDS011;2485;49.326;7.214;2022-07-22T09:55:07;9.43;;;6.90;;
4939;SDS011;2485;49.326;7.214;2022-07-22T09:57:34;7.70;;;6.40;;
4939;SDS011;2485;49.326;7.214;2022-07-22T10:00:00;8.97;;;6.97;;
4939;SDS011;2485;49.326;7.214;2022-07-22T10:02:27;10.00;;;6.60;;
4939;SDS011;2485;49.326;7.214;2022-07-22T10:04:54;8.27;;;7.07;;
4939;SDS011;2485;49.326;7.214;2022-07-22T10:07:23;9.70;;;7.00;;
4939;SDS011;2485;49.326;7.214;2022-07-22T10:09:51;8.00;;;7.20;;
4939;SDS011;2485;49.326;7.214;2022-07-22T10:12:18;8.30;;;7.23;;
4939;SDS011;2485;49.326;7.214;2022-07-22T10:14:44;10.23;;;7.47;;
4939;SDS011;2485;49.326;7.214;2022-07-22T10:17:14;9.80;;;6.50;;
4939;SDS011;2485;49.326;7.214;2022-07-22T10:19:40;8.90;;;7.30;;
4939;SDS011;2485;49.326;7.214;2022-07-22T10:22:18;9.60;;;7.20;;
4939;SDS011;2485;49.326;7.214;2022-07-22T10:25:06;12.53;;;7.00;;
4939;SDS011;2485;49.326;7.214;2022-07-22T10:30:17;9.40;;;7.53;;
4939;SDS011;2485;49.326;7.214;2022-07-22T10:32:44;8.90;;;7.53;;
4939;SDS011;2485;49.326;7.214;2022-07-22T10:35:27;10.10;;;6.90;;
4939;SDS011;2485;49.326;7.214;2022-07-22T10:37:58;8.80;;;7.00;;
4939;SDS011;2485;49.326;7.214;2022-07-22T10:40:27;11.43;;;7.20;;
4939;SDS011;2485;49.326;7.214;2022-07-22T10:43:03;10.83;;;7.20;;
4939;SDS011;2485;49.326;7.214;2022-07-22T10:45:32;9.23;;;8.00;;
4939;SDS011;2485;49.326;7.214;2022-07-22T10:47:59;9.33;;;7.00;;
4939;SDS011;2485;49.326;7.214;2022-07-22T10:50:38;8.27;;;6.80;;
4939;SDS011;2485;49.326;7.214;2022-07-22T10:53:05;8.93;;;6.87;;
4939;SDS011;2485;49.326;7.214;2022-07-22T10:55:34;10.47;;;7.80;;
4939;SDS011;2485;49.326;7.214;2022-07-22T10:58:00;8.00;;;6.80;;
4939;SDS011;2485;49.326;7.214;2022-07-22T11:00:27;9.47;;;6.83;;
4939;SDS011;2485;49.326;7.214;2022-07-22T11:02:53;11.03;;;6.83;;
4939;SDS011;2485;49.326;7.214;2022-07-22T11:05:24;8.60;;;7.40;;
4939;SDS011;2485;49.326;7.214;2022-07-22T11:07:50;10.90;;;7.30;;
4939;SDS011;2485;49.326;7.214;2022-07-22T11:10:17;8.27;;;6.50;;
4939;SDS011;2485;49.326;7.214;2022-07-22T11:12:45;12.97;;;6.70;;
4939;SDS011;2485;49.326;7.214;2022-07-22T11:15:12;9.17;;;7.40;;
4939;SDS011;2485;49.326;7.214;2022-07-22T11:17:38;8.87;;;6.53;;
4939;SDS011;2485;49.326;7.214;2022-07-22T11:20:06;9.30;;;7.10;;
4939;SDS011;2485;49.326;7.214;2022-07-22T11:22:32;10.10;;;7.03;;
4939;SDS011;2485;49.326;7.214;2022-07-22T11:24:59;7.10;;;6.40;;
4939;SDS011;2485;49.326;7.214;2022-07-22T11:27:26;8.43;;;7.57;;
4939;SDS011;2485;49.326;7.214;2022-07-22T11:29:54;7.77;;;7.00;;
4939;SDS011;2485;49.326;7.214;2022-07-22T11:32:21;8.53;;;6.57;;
4939;SDS011;2485;49.326;7.214;2022-07-22T11:34:48;11.07;;;6.70;;
4939;SDS011;2485;49.326;7.214;2022-07-22T11:37:15;7.70;;;6.40;;
4939;SDS011;2485;49.326;7.214;2022-07-22T11:39:42;8.97;;;7.03;;
4939;SDS011;2485;49.326;7.214;2022-07-22T11:42:09;7.80;;;6.80;;
4939;SDS011;2485;49.326;7.214;2022-07-22T11:44:36;8.53;;;7.00;;
4939;SDS011;2485;49.326;7.214;2022-07-22T11:47:04;11.07;;;7.07;;
4939;SDS011;2485;49.326;7.214;2022-07-22T11:49:31;10.43;;;6.63;;
4939;SDS011;2485;49.326;7.214;2022-07-22T11:51:58;12.13;;;6.70;;
4939;SDS011;2485;49.326;7.214;2022-07-22T11:54:25;7.90;;;6.37;;
4939;SDS011;2485;49.326;7.214;2022-07-22T11:56:51;8.83;;;6.70;;
4939;SDS011;2485;49.326;7.214;2022-07-22T11:59:17;10.20;;;7.37;;
4939;SDS011;2485;49.326;7.214;2022-07-22T12:01:44;7.87;;;6.43;;
4939;SDS011;2485;49.326;7.214;2022-07-22T12:04:13;9.93;;;7.03;;
4939;SDS011;2485;49.326;7.214;2022-07-22T12:06:41;9.50;;;6.70;;
4939;SDS011;2485;49.326;7.214;2022-07-22T12:09:08;8.97;;;6.07;;
4939;SDS011;2485;49.326;7.214;2022-07-22T12:11:35;9.47;;;6.57;;
4939;SDS011;2485;49.326;7.214;2022-07-22T12:14:06;9.70;;;6.90;;
4939;SDS011;2485;49.326;7.214;2022-07-22T12:16:34;9.60;;;6.40;;
4939;SDS011;2485;49.326;7.214;2022-07-22T12:19:01;11.80;;;6.67;;
4939;SDS011;2485;49.326;7.214;2022-07-22T12:21:29;7.30;;;6.60;;
4939;SDS011;2485;49.326;7.214;2022-07-22T12:23:57;6.97;;;6.20;;
4939;SDS011;2485;49.326;7.214;2022-07-22T12:26:36;8.83;;;6.63;;
4939;SDS011;2485;49.326;7.214;2022-07-22T12:29:22;7.70;;;6.17;;
4939;SDS011;2485;49.326;7.214;2022-07-22T12:31:49;8.33;;;6.40;;
4939;SDS011;2485;49.326;7.214;2022-07-22T12:34:16;8.47;;;7.00;;
4939;SDS011;2485;49.326;7.214;2022-07-22T12:36:44;8.17;;;6.27;;
4939;SDS011;2485;49.326;7.214;2022-07-22T12:39:12;7.50;;;6.73;;
4939;SDS011;2485;49.326;7.214;2022-07-22T12:41:44;10.33;;;6.70;;
4939;SDS011;2485;49.326;7.214;2022-07-22T12:44:14;7.70;;;6.90;;
4939;SDS011;2485;49.326;7.214;2022-07-22T12:46:43;8.87;;;6.50;;
4939;SDS011;2485;49.326;7.214;2022-07-22T12:49:10;7.90;;;5.97;;
4939;SDS011;2485;49.326;7.214;2022-07-22T12:51:37;8.53;;;7.00;;
4939;SDS011;2485;49.326;7.214;2022-07-22T12:54:04;10.47;;;6.63;;
4939;SDS011;2485;49.326;7.214;2022-07-22T12:56:31;12.13;;;7.17;;
4939;SDS011;2485;49.326;7.214;2022-07-22T12:58:58;9.40;;;6.57;;
4939;SDS011;2485;49.326;7.214;2022-07-22T13:01:25;8.30;;;6.17;;
4939;SDS011;2485;49.326;7.214;2022-07-22T13:03:51;8.90;;;6.80;;
4939;SDS011;2485;49.326;7.214;2022-07-22T13:06:18;7.20;;;6.43;;
4939;SDS011;2485;49.326;7.214;2022-07-22T13:08:44;7.00;;;6.30;;
4939;SDS011;2485;49.326;7.214;2022-07-22T13:11:12;6.93;;;6.23;;
4939;SDS011;2485;49.326;7.214;2022-07-22T13:13:38;6.83;;;6.13;;
4939;SDS011;2485;49.326;7.214;2022-07-22T13:16:05;7.20;;;5.50;;
4939;SDS011;2485;49.326;7.214;2022-07-22T13:18:31;7.53;;;6.53;;
4939;SDS011;2485;49.326;7.214;2022-07-22T13:20:58;9.40;;;6.30;;
4939;SDS011;2485;49.326;7.214;2022-07-22T13:23:24;10.23;;;6.73;;
4939;SDS011;2485;49.326;7.214;2022-07-22T13:25:51;9.33;;;5.80;;
4939;SDS011;2485;49.326;7.214;2022-07-22T13:28:18;6.40;;;5.87;;
4939;SDS011;2485;49.326;7.214;2022-07-22T13:30:45;7.30;;;6.10;;
4939;SDS011;2485;49.326;7.214;2022-07-22T13:33:11;12.00;;;6.40;;
4939;SDS011;2485;49.326;7.214;2022-07-22T13:35:37;11.20;;;6.67;;
4939;SDS011;2485;49.326;7.214;2022-07-22T13:38:04;6.67;;;6.07;;
4939;SDS011;2485;49.326;7.214;2022-07-22T13:40:30;7.67;;;6.43;;
4939;SDS011;2485;49.326;7.214;2022-07-22T13:42:57;7.30;;;6.60;;
4939;SDS011;2485;49.326;7.214;2022-07-22T13:45:25;7.20;;;5.87;;
4939;SDS011;2485;49.326;7.214;2022-07-22T13:47:51;7.73;;;5.43;;
4939;SDS011;2485;49.326;7.214;2022-07-22T13:50:17;7.20;;;6.10;;
4939;SDS011;2485;49.326;7.214;2022-07-22T13:52:44;6.43;;;5.83;;
4939;SDS011;2485;49.326;7.214;2022-07-22T13:55:11;7.40;;;6.10;;
4939;SDS011;2485;49.326;7.214;2022-07-22T13:57:38;9.40;;;6.27;;
4939;SDS011;2485;49.326;7.214;2022-07-22T14:00:06;7.93;;;6.57;;
4939;SDS011;2485;49.326;7.214;2022-07-22T14:02:35;6.83;;;6.00;;
4939;SDS011;2485;49.326;7.214;2022-07-22T14:05:01;8.60;;;6.17;;
4939;SDS011;2485;49.326;7.214;2022-07-22T14:07:27;8.73;;;6.87;;
4939;SDS011;2485;49.326;7.214;2022-07-22T14:09:54;8.20;;;6.20;;
4939;SDS011;2485;49.326;7.214;2022-07-22T14:12:20;8.10;;;5.97;;
4939;SDS011;2485;49.326;7.214;2022-07-22T14:14:46;7.17;;;5.40;;
4939;SDS011;2485;49.326;7.214;2022-07-22T14:17:13;9.97;;;5.87;;
4939;SDS011;2485;49.326;7.214;2022-07-22T14:19:40;9.47;;;5.60;;
4939;SDS011;2485;49.326;7.214;2022-07-22T14:22:07;8.10;;;6.07;;
4939;SDS011;2485;49.326;7.214;2022-07-22T14:24:33;7.67;;;6.27;;
4939;SDS011;2485;49.326;7.214;2022-07-22T14:26:59;6.53;;;5.20;;
4939;SDS011;2485;49.326;7.214;2022-07-22T14:29:26;6.37;;;5.70;;
4939;SDS011;2485;49.326;7.214;2022-07-22T14:31:52;6.50;;;5.67;;
4939;SDS011;2485;49.326;7.214;2022-07-22T14:34:19;6.27;;;5.50;;
4939;SDS011;2485;49.326;7.214;2022-07-22T14:36:46;11.97;;;6.50;;
4939;SDS011;2485;49.326;7.214;2022-07-22T14:39:13;6.20;;;5.53;;
4939;SDS011;2485;49.326;7.214;2022-07-22T14:41:39;8.23;;;6.03;;
4939;SDS011;2485;49.326;7.214;2022-07-22T14:44:06;5.70;;;5.20;;
4939;SDS011;2485;49.326;7.214;2022-07-22T14:46:32;8.00;;;5.80;;
4939;SDS011;2485;49.326;7.214;2022-07-22T14:48:58;7.57;;;6.40;;
4939;SDS011;2485;49.326;7.214;2022-07-22T14:51:25;7.70;;;6.23;;
4939;SDS011;2485;49.326;7.214;2022-07-22T14:53:52;6.80;;;5.40;;
4939;SDS011;2485;49.326;7.214;2022-07-22T14:56:19;6.20;;;5.60;;
4939;SDS011;2485;49.326;7.214;2022-07-22T14:58:45;16.87;;;5.80;;
4939;SDS011;2485;49.326;7.214;2022-07-22T15:01:14;7.60;;;6.33;;
4939;SDS011;2485;49.326;7.214;2022-07-22T15:03:44;6.43;;;5.70;;
4939;SDS011;2485;49.326;7.214;2022-07-22T15:06:11;6.33;;;5.43;;
4939;SDS011;2485;49.326;7.214;2022-07-22T15:08:37;6.07;;;5.30;;